Time;durP1;ratioP1;P1;durP2;ratioP2;P2;SDS_P1;SDS_P2;PMS_P1;PMS_P2;Temp;Humidity;BMP_temperature;BMP_pressure;BME280_temperature;BME280_humidity;BME280_pressure;Samples;Min_cycle;Max_cycle;Signal;HPM_P1;HPM_P2
2023/04/15 00:04:32;;;;;;;12.10;8.85;;;;;;;;;;10492213;28;20037;-78
2023/04/15 00:09:32;;;;;;;10.35;8.40;;;;;;;;;;10496686;28;20066;-78
2023/04/15 00:14:35;;;;;;;16.02;9.02;;;;;;;;;;10494362;28;20110;-76
2023/04/15 00:19:35;;;;;;;12.10;9.05;;;;;;;;;;10482151;28;20055;-75
2023/04/15 00:24:36;;;;;;;10.10;7.63;;;;;;;;;;10502587;28;20568;-75
2023/04/15 00:29:38;;;;;;;10.52;8.00;;;;;;;;;;10499015;28;20762;-81
2023/04/15 00:34:39;;;;;;;10.38;8.02;;;;;;;;;;10498783;28;20071;-79
2023/04/15 00:39:42;;;;;;;8.18;7.03;;;;;;;;;;10468498;28;20039;-80
2023/04/15 00:44:43;;;;;;;8.70;7.32;;;;;;;;;;10556785;28;20092;-77
2023/04/15 00:49:43;;;;;;;9.90;6.90;;;;;;;;;;10559322;28;20444;-75
2023/04/15 00:54:44;;;;;;;8.70;6.50;;;;;;;;;;10497338;28;20075;-75
2023/04/15 00:59:45;;;;;;;9.27;6.78;;;;;;;;;;10467895;28;20040;-77
2023/04/15 01:04:46;;;;;;;8.05;6.28;;;;;;;;;;10494550;28;20066;-76
2023/04/15 01:09:47;;;;;;;8.88;6.88;;;;;;;;;;10482112;28;20064;-77
2023/04/15 01:14:48;;;;;;;9.23;6.60;;;;;;;;;;10508144;28;20031;-78
2023/04/15 01:19:48;;;;;;;8.65;7.20;;;;;;;;;;10515405;28;20294;-77
2023/04/15 01:24:54;;;;;;;9.68;6.85;;;;;;;;;;10486033;28;20039;-75
2023/04/15 01:29:54;;;;;;;7.35;5.97;;;;;;;;;;10493092;28;20044;-79
2023/04/15 01:34:55;;;;;;;9.68;6.25;;;;;;;;;;10484678;28;20483;-79
2023/04/15 01:39:57;;;;;;;10.50;6.60;;;;;;;;;;10484221;28;20044;-77
2023/04/15 01:44:57;;;;;;;8.60;6.40;;;;;;;;;;10490479;28;20500;-77
2023/04/15 01:50:00;;;;;;;9.63;6.57;;;;;;;;;;10504411;28;20028;-77
2023/04/15 01:55:03;;;;;;;8.05;6.38;;;;;;;;;;10481254;28;20326;-78
2023/04/15 02:00:03;;;;;;;8.20;6.20;;;;;;;;;;10478666;28;20054;-78
2023/04/15 02:05:14;;;;;;;7.65;6.72;;;;;;;;;;10485183;28;20536;-77
2023/04/15 02:10:20;;;;;;;10.13;6.25;;;;;;;;;;10482415;28;20075;-75
2023/04/15 02:15:21;;;;;;;8.20;6.03;;;;;;;;;;10498690;28;20039;-78
2023/04/15 02:20:23;;;;;;;9.70;5.90;;;;;;;;;;10464464;28;20051;-77
2023/04/15 02:25:24;;;;;;;9.23;6.40;;;;;;;;;;10497844;28;20048;-76
2023/04/15 02:30:24;;;;;;;7.60;6.15;;;;;;;;;;10520370;28;20043;-76
2023/04/15 02:35:26;;;;;;;7.88;5.70;;;;;;;;;;10518614;28;20101;-79
2023/04/15 02:40:28;;;;;;;8.02;6.00;;;;;;;;;;10533526;28;20043;-78
2023/04/15 02:45:28;;;;;;;8.57;6.65;;;;;;;;;;10533655;28;20024;-77
2023/04/15 02:50:38;;;;;;;7.20;6.15;;;;;;;;;;10522738;28;20310;-76
2023/04/15 02:55:39;;;;;;;7.88;6.82;;;;;;;;;;10538187;28;20035;-79
2023/04/15 03:00:40;;;;;;;8.40;6.22;;;;;;;;;;10511327;28;20047;-77
2023/04/15 03:05:41;;;;;;;8.00;6.10;;;;;;;;;;10513568;28;20116;-78
2023/04/15 03:10:41;;;;;;;8.07;6.43;;;;;;;;;;10505345;28;20048;-77
2023/04/15 03:15:42;;;;;;;9.18;6.50;;;;;;;;;;10510547;28;20500;-77
2023/04/15 03:20:42;;;;;;;7.63;5.95;;;;;;;;;;10497772;28;20036;-76
2023/04/15 03:25:44;;;;;;;8.65;6.57;;;;;;;;;;10493388;28;20119;-76
2023/04/15 03:30:44;;;;;;;8.65;5.75;;;;;;;;;;10493351;28;20537;-76
2023/04/15 03:35:45;;;;;;;8.18;6.32;;;;;;;;;;10478989;28;20037;-76
2023/04/15 03:40:45;;;;;;;8.35;5.85;;;;;;;;;;10494431;28;20072;-75
2023/04/15 03:45:46;;;;;;;8.82;6.47;;;;;;;;;;10501465;28;20496;-76
2023/04/15 03:50:47;;;;;;;9.37;6.67;;;;;;;;;;10481998;28;20124;-77
2023/04/15 03:55:47;;;;;;;8.95;5.93;;;;;;;;;;10483050;28;20301;-76
2023/04/15 04:00:47;;;;;;;10.13;6.63;;;;;;;;;;10499865;28;20127;-76
2023/04/15 04:05:48;;;;;;;7.07;6.03;;;;;;;;;;10497200;28;20032;-75
2023/04/15 04:10:48;;;;;;;7.75;6.10;;;;;;;;;;10479727;28;20389;-74
2023/04/15 04:15:49;;;;;;;7.65;6.50;;;;;;;;;;10496152;28;20048;-75
2023/04/15 04:20:50;;;;;;;8.20;6.35;;;;;;;;;;10498072;28;20039;-75
2023/04/15 04:25:52;;;;;;;8.10;6.13;;;;;;;;;;10478967;28;20066;-77
2023/04/15 04:30:55;;;;;;;7.80;6.35;;;;;;;;;;10497307;28;20812;-75
2023/04/15 04:35:56;;;;;;;7.07;5.85;;;;;;;;;;10499904;28;20036;-79
2023/04/15 04:40:57;;;;;;;7.07;6.37;;;;;;;;;;10508198;28;20042;-76
2023/04/15 04:45:57;;;;;;;9.88;6.28;;;;;;;;;;10523250;28;20654;-77
2023/04/15 04:50:59;;;;;;;8.18;5.68;;;;;;;;;;10495255;28;20032;-78
2023/04/15 04:56:00;;;;;;;8.45;6.13;;;;;;;;;;10498030;28;20798;-76
2023/04/15 05:01:03;;;;;;;8.27;6.07;;;;;;;;;;10498621;28;20043;-74
2023/04/15 05:06:05;;;;;;;8.43;5.65;;;;;;;;;;10504872;28;20040;-79
2023/04/15 05:11:06;;;;;;;7.13;5.43;;;;;;;;;;10498826;28;20131;-78
2023/04/15 05:16:07;;;;;;;7.40;5.47;;;;;;;;;;10493087;28;20052;-76
2023/04/15 05:21:08;;;;;;;8.20;5.22;;;;;;;;;;10495588;28;20105;-79
2023/04/15 05:26:09;;;;;;;8.40;5.20;;;;;;;;;;10499029;28;20502;-78
2023/04/15 05:31:09;;;;;;;5.90;4.90;;;;;;;;;;10509002;28;20062;-76
2023/04/15 05:36:10;;;;;;;5.90;4.90;;;;;;;;;;10514495;28;20315;-76
2023/04/15 05:41:11;;;;;;;5.78;4.85;;;;;;;;;;10488542;28;20041;-82
2023/04/15 05:46:13;;;;;;;7.70;5.70;;;;;;;;;;10494296;28;20067;-82
2023/04/15 05:51:14;;;;;;;7.93;5.38;;;;;;;;;;10505259;28;20106;-77
2023/04/15 05:56:14;;;;;;;6.15;4.80;;;;;;;;;;10491166;28;20051;-77
2023/04/15 06:01:15;;;;;;;6.85;5.78;;;;;;;;;;10491165;28;20090;-78
2023/04/15 06:06:16;;;;;;;7.88;5.10;;;;;;;;;;10504180;28;20888;-78
2023/04/15 06:11:16;;;;;;;7.70;6.00;;;;;;;;;;10499106;28;20036;-80
2023/04/15 06:16:17;;;;;;;11.00;7.13;;;;;;;;;;10500123;28;20210;-78
2023/04/15 06:21:18;;;;;;;8.98;6.25;;;;;;;;;;10475315;28;20294;-77
2023/04/15 06:26:19;;;;;;;9.95;6.63;;;;;;;;;;10497016;28;20051;-77
2023/04/15 06:31:19;;;;;;;8.48;6.47;;;;;;;;;;10493439;28;20040;-78
2023/04/15 06:36:20;;;;;;;10.10;7.32;;;;;;;;;;10494736;28;20059;-78
2023/04/15 06:41:20;;;;;;;10.38;7.25;;;;;;;;;;10482508;28;20040;-79
2023/04/15 06:46:21;;;;;;;10.10;7.70;;;;;;;;;;10500256;28;20480;-80
2023/04/15 06:51:22;;;;;;;8.77;7.45;;;;;;;;;;10494197;28;20043;-81
2023/04/15 06:56:23;;;;;;;8.82;7.10;;;;;;;;;;10467202;28;20046;-78
2023/04/15 07:01:25;;;;;;;10.40;7.00;;;;;;;;;;10476367;28;20040;-78
2023/04/15 07:06:27;;;;;;;9.90;7.72;;;;;;;;;;10474187;28;20049;-77
2023/04/15 07:11:29;;;;;;;9.07;7.18;;;;;;;;;;10478728;28;20067;-75
2023/04/15 07:16:30;;;;;;;8.70;7.80;;;;;;;;;;10480762;28;20052;-77
2023/04/15 07:21:31;;;;;;;9.82;7.43;;;;;;;;;;10514432;28;20032;-78
2023/04/15 07:26:37;;;;;;;9.18;6.55;;;;;;;;;;10477757;28;20044;-77
2023/04/15 07:31:41;;;;;;;11.77;7.78;;;;;;;;;;10474232;28;20048;-84
2023/04/15 07:36:42;;;;;;;9.52;7.03;;;;;;;;;;10452686;28;20045;-74
2023/04/15 07:41:42;;;;;;;9.48;7.15;;;;;;;;;;10454448;28;20033;-77
2023/04/15 07:46:43;;;;;;;10.57;7.03;;;;;;;;;;10433323;28;20079;-75
2023/04/15 07:51:43;;;;;;;9.27;6.77;;;;;;;;;;10458227;28;20395;-75
2023/04/15 07:56:44;;;;;;;8.00;6.32;;;;;;;;;;10438122;28;20040;-76
2023/04/15 08:01:45;;;;;;;8.27;6.95;;;;;;;;;;10455688;28;20083;-75
2023/04/15 08:06:49;;;;;;;7.20;6.03;;;;;;;;;;10444141;28;20382;-74
2023/04/15 08:11:52;;;;;;;8.00;4.63;;;;;;;;;;10446619;28;20043;-73
2023/04/15 08:16:53;;;;;;;8.07;5.32;;;;;;;;;;10427761;28;20605;-75
2023/04/15 08:21:54;;;;;;;6.00;4.10;;;;;;;;;;10444828;28;20061;-76
2023/04/15 08:26:58;;;;;;;6.05;4.38;;;;;;;;;;10425555;28;20071;-80
2023/04/15 08:32:00;;;;;;;7.00;5.40;;;;;;;;;;10446669;28;20558;-75
2023/04/15 08:37:00;;;;;;;7.72;5.38;;;;;;;;;;10450319;28;20072;-76
2023/04/15 08:42:05;;;;;;;7.40;5.20;;;;;;;;;;10457969;28;20159;-78
2023/04/15 08:47:07;;;;;;;9.57;6.20;;;;;;;;;;10434625;28;20343;-79
2023/04/15 08:52:08;;;;;;;9.00;5.90;;;;;;;;;;10460651;28;20544;-77
2023/04/15 08:57:08;;;;;;;7.95;5.65;;;;;;;;;;10456958;28;20052;-76
2023/04/15 09:02:10;;;;;;;8.57;5.85;;;;;;;;;;10453993;28;20041;-76
2023/04/15 09:07:11;;;;;;;10.18;5.65;;;;;;;;;;10430391;28;20041;-77
2023/04/15 09:12:12;;;;;;;10.07;5.75;;;;;;;;;;10427778;28;20041;-76
2023/04/15 09:17:12;;;;;;;8.45;5.53;;;;;;;;;;10431530;28;20049;-76
2023/04/15 09:22:14;;;;;;;6.55;4.60;;;;;;;;;;10450872;28;20048;-77
2023/04/15 09:27:18;;;;;;;7.03;4.35;;;;;;;;;;10444064;28;20185;-73
2023/04/15 09:32:22;;;;;;;5.30;3.85;;;;;;;;;;10438599;28;20111;-77
2023/04/15 09:37:36;;;;;;;6.15;4.43;;;;;;;;;;10461886;28;20048;-79
2023/04/15 09:42:36;;;;;;;4.72;3.40;;;;;;;;;;10477036;28;20104;-78
2023/04/15 09:47:38;;;;;;;4.35;3.42;;;;;;;;;;10470776;28;20040;-79
2023/04/15 09:52:42;;;;;;;3.67;3.30;;;;;;;;;;10480298;28;20068;-77
2023/04/15 09:57:47;;;;;;;4.38;3.65;;;;;;;;;;10483199;28;20041;-78
2023/04/15 10:02:48;;;;;;;4.95;3.72;;;;;;;;;;10376571;28;20052;-76
2023/04/15 10:07:58;;;;;;;5.40;4.03;;;;;;;;;;10364103;28;20580;-78
2023/04/15 10:12:58;;;;;;;4.97;4.05;;;;;;;;;;10380587;28;20033;-79
2023/04/15 10:18:01;;;;;;;5.75;3.88;;;;;;;;;;10368341;28;20053;-78
2023/04/15 10:23:07;;;;;;;5.15;3.67;;;;;;;;;;10523234;28;20063;-77
2023/04/15 10:28:08;;;;;;;4.15;3.03;;;;;;;;;;10492335;28;20052;-79
2023/04/15 10:33:10;;;;;;;4.43;2.95;;;;;;;;;;10532059;28;20032;-80
2023/04/15 10:38:32;;;;;;;3.57;2.73;;;;;;;;;;10497493;28;20052;-79
2023/04/15 10:43:35;;;;;;;4.10;3.33;;;;;;;;;;10533034;28;20044;-80
2023/04/15 10:48:36;;;;;;;2.95;2.65;;;;;;;;;;10529626;28;20021;-80
2023/04/15 10:53:41;;;;;;;3.15;2.60;;;;;;;;;;10556559;28;20024;-81
2023/04/15 10:58:44;;;;;;;2.95;2.03;;;;;;;;;;10533112;28;20052;-82
2023/04/15 11:03:54;;;;;;;3.50;2.42;;;;;;;;;;10548907;28;20040;-78
2023/04/15 11:09:01;;;;;;;3.05;2.38;;;;;;;;;;10500638;28;20043;-77
2023/04/15 11:14:02;;;;;;;3.70;2.20;;;;;;;;;;10478247;28;20040;-77
2023/04/15 11:19:02;;;;;;;2.70;2.38;;;;;;;;;;10482398;28;20045;-77
2023/04/15 11:24:03;;;;;;;2.30;2.10;;;;;;;;;;10477006;28;20396;-78
2023/04/15 11:29:04;;;;;;;2.60;2.20;;;;;;;;;;10461945;28;21025;-78
2023/04/15 11:34:05;;;;;;;3.83;1.98;;;;;;;;;;10490803;28;20044;-77
2023/04/15 11:39:06;;;;;;;2.22;2.03;;;;;;;;;;10482092;28;20052;-77
2023/04/15 11:44:15;;;;;;;2.70;2.30;;;;;;;;;;10483576;28;20048;-80
2023/04/15 11:49:25;;;;;;;2.38;2.17;;;;;;;;;;10480257;28;21394;-81
2023/04/15 11:54:25;;;;;;;2.78;1.90;;;;;;;;;;10491270;28;20052;-78
2023/04/15 11:59:26;;;;;;;1.63;1.52;;;;;;;;;;10459186;28;20051;-80
2023/04/15 12:04:26;;;;;;;2.17;1.98;;;;;;;;;;10484699;28;20556;-77
2023/04/15 12:09:27;;;;;;;1.88;1.60;;;;;;;;;;10479583;28;20033;-80
2023/04/15 12:14:29;;;;;;;1.65;1.42;;;;;;;;;;10495074;28;20035;-81
2023/04/15 12:19:38;;;;;;;1.77;1.30;;;;;;;;;;10487871;28;20250;-81
2023/04/15 12:24:39;;;;;;;1.75;1.48;;;;;;;;;;10493243;28;20067;-79
2023/04/15 12:29:40;;;;;;;2.45;1.70;;;;;;;;;;10500676;28;20024;-77
2023/04/15 12:34:51;;;;;;;2.50;2.10;;;;;;;;;;10509344;28;20119;-79
2023/04/15 12:39:52;;;;;;;2.33;2.10;;;;;;;;;;10500650;28;20035;-79
2023/04/15 12:44:53;;;;;;;2.35;1.95;;;;;;;;;;10488995;28;20047;-77
2023/04/15 12:49:54;;;;;;;2.67;1.90;;;;;;;;;;10507156;28;20037;-78
2023/04/15 12:54:55;;;;;;;1.77;1.60;;;;;;;;;;10499455;28;20051;-77
2023/04/15 12:59:55;;;;;;;1.80;1.70;;;;;;;;;;10515410;28;20990;-79
2023/04/15 13:04:56;;;;;;;2.25;1.70;;;;;;;;;;10501286;28;20123;-78
2023/04/15 13:09:57;;;;;;;2.27;1.60;;;;;;;;;;10488770;28;20188;-77
2023/04/15 13:14:57;;;;;;;1.80;1.50;;;;;;;;;;10504030;28;20036;-78
2023/04/15 13:19:58;;;;;;;1.35;1.25;;;;;;;;;;10509947;28;20399;-76
2023/04/15 13:25:00;;;;;;;1.73;1.63;;;;;;;;;;10518312;28;20403;-78
2023/04/15 13:30:01;;;;;;;1.83;1.55;;;;;;;;;;10521322;28;20066;-77
2023/04/15 13:35:04;;;;;;;2.25;1.60;;;;;;;;;;10509115;28;20068;-82
2023/04/15 13:40:06;;;;;;;1.60;1.50;;;;;;;;;;10507902;28;20040;-79
2023/04/15 13:45:07;;;;;;;1.50;1.40;;;;;;;;;;10504675;28;20052;-79
2023/04/15 13:50:08;;;;;;;1.85;1.52;;;;;;;;;;10488943;28;20036;-77
2023/04/15 13:55:09;;;;;;;2.13;1.60;;;;;;;;;;10512321;28;20044;-79
2023/04/15 14:00:09;;;;;;;2.22;1.48;;;;;;;;;;10521442;28;20024;-78
2023/04/15 14:05:10;;;;;;;2.20;1.50;;;;;;;;;;10499401;28;20037;-78
2023/04/15 14:10:14;;;;;;;1.77;1.42;;;;;;;;;;10518937;28;20067;-79
2023/04/15 14:15:15;;;;;;;1.80;1.60;;;;;;;;;;10507424;28;20041;-78
2023/04/15 14:20:15;;;;;;;1.77;1.60;;;;;;;;;;10510338;28;20074;-75
2023/04/15 14:25:16;;;;;;;1.63;1.50;;;;;;;;;;10506774;28;20127;-76
2023/04/15 14:30:16;;;;;;;2.30;1.83;;;;;;;;;;10500345;28;20788;-77
2023/04/15 14:35:16;;;;;;;2.30;1.57;;;;;;;;;;10503949;28;20048;-77
2023/04/15 14:40:18;;;;;;;1.40;1.30;;;;;;;;;;10479106;28;20814;-78
2023/04/15 14:45:20;;;;;;;1.63;1.52;;;;;;;;;;10518044;28;20473;-78
2023/04/15 14:50:21;;;;;;;2.40;1.45;;;;;;;;;;10519476;28;20443;-75
2023/04/15 14:55:22;;;;;;;3.42;1.60;;;;;;;;;;10485681;28;20058;-76
2023/04/15 15:00:23;;;;;;;1.70;1.60;;;;;;;;;;10508008;28;20039;-74
2023/04/15 15:05:26;;;;;;;1.73;1.63;;;;;;;;;;10496669;28;20287;-76
2023/04/15 15:10:26;;;;;;;;;;;;;;;;;;10493736;28;20047;-75
2023/04/15 15:15:26;;;;;;;2.65;1.95;;;;;;;;;;10461609;28;19928;-76
2023/04/15 15:20:28;;;;;;;2.38;1.92;;;;;;;;;;10508851;28;20055;-75
2023/04/15 15:25:29;;;;;;;2.45;2.25;;;;;;;;;;10478466;28;20041;-78
2023/04/15 15:30:29;;;;;;;2.08;1.88;;;;;;;;;;10500526;28;20137;-77
2023/04/15 15:35:31;;;;;;;2.40;2.20;;;;;;;;;;10507847;28;21250;-80
2023/04/15 15:40:32;;;;;;;2.90;2.60;;;;;;;;;;10520411;28;20568;-76
2023/04/15 15:45:37;;;;;;;3.45;2.50;;;;;;;;;;10486966;28;20045;-78
2023/04/15 15:50:39;;;;;;;2.95;2.58;;;;;;;;;;10515509;28;20139;-76
2023/04/15 15:55:39;;;;;;;4.32;3.13;;;;;;;;;;10494431;28;20131;-78
2023/04/15 16:00:41;;;;;;;4.05;3.40;;;;;;;;;;10472210;28;20044;-78
2023/04/15 16:05:43;;;;;;;4.50;3.13;;;;;;;;;;10515644;28;20066;-77
2023/04/15 16:10:47;;;;;;;4.35;2.70;;;;;;;;;;10559912;28;20065;-80
2023/04/15 16:15:51;;;;;;;3.10;2.80;;;;;;;;;;10557184;28;20087;-77
2023/04/15 16:20:51;;;;;;;4.50;3.05;;;;;;;;;;10561801;28;20044;-79
2023/04/15 16:25:52;;;;;;;5.07;3.30;;;;;;;;;;10517640;28;20380;-81
2023/04/15 16:30:53;;;;;;;3.90;2.83;;;;;;;;;;10527440;28;20123;-79
2023/04/15 16:36:26;;;;;;;3.60;2.95;;;;;;;;;;10520964;28;20589;-78
2023/04/15 16:41:29;;;;;;;3.10;2.47;;;;;;;;;;10514155;28;20043;-76
2023/04/15 16:46:33;;;;;;;3.00;2.67;;;;;;;;;;10490527;28;20044;-77
2023/04/15 16:51:36;;;;;;;2.90;2.42;;;;;;;;;;10527107;28;20046;-77
2023/04/15 16:56:36;;;;;;;3.80;2.78;;;;;;;;;;10500523;28;20125;-80
2023/04/15 17:01:37;;;;;;;3.40;2.80;;;;;;;;;;10484417;28;20162;-79
2023/04/15 17:06:38;;;;;;;3.90;3.20;;;;;;;;;;10509726;28;20040;-76
2023/04/15 17:11:44;;;;;;;4.82;3.17;;;;;;;;;;10504231;28;20055;-78
2023/04/15 17:16:49;;;;;;;4.85;3.53;;;;;;;;;;10505037;28;20140;-80
2023/04/15 17:21:52;;;;;;;4.95;3.40;;;;;;;;;;10497671;28;20028;-78
2023/04/15 17:26:53;;;;;;;4.43;3.38;;;;;;;;;;10528793;28;20068;-77
2023/04/15 17:31:53;;;;;;;4.00;3.60;;;;;;;;;;10512359;28;20044;-78
2023/04/15 17:36:59;;;;;;;3.63;3.00;;;;;;;;;;10551848;28;20040;-79
2023/04/15 17:42:03;;;;;;;4.13;3.28;;;;;;;;;;10514448;28;20027;-81
2023/04/15 17:47:04;;;;;;;5.38;3.60;;;;;;;;;;10552512;28;20304;-79
2023/04/15 17:52:04;;;;;;;5.60;4.40;;;;;;;;;;10498086;28;20043;-81
2023/04/15 17:57:06;;;;;;;5.82;4.30;;;;;;;;;;10510004;28;20048;-82
2023/04/15 18:02:06;;;;;;;8.97;6.47;;;;;;;;;;10518042;28;20536;-84
2023/04/15 18:07:08;;;;;;;7.75;5.03;;;;;;;;;;10490536;28;20274;-82
2023/04/15 18:12:10;;;;;;;7.40;5.15;;;;;;;;;;10515952;28;20064;-81
2023/04/15 18:17:13;;;;;;;6.10;3.97;;;;;;;;;;10502887;28;20476;-81
2023/04/15 18:22:16;;;;;;;4.50;3.93;;;;;;;;;;10503619;28;20040;-81
2023/04/15 18:27:21;;;;;;;7.95;5.35;;;;;;;;;;10554319;28;20035;-81
2023/04/15 18:32:22;;;;;;;5.05;4.03;;;;;;;;;;10587923;28;20091;-82
2023/04/15 18:37:26;;;;;;;3.80;3.50;;;;;;;;;;10572916;28;20139;-84
2023/04/15 18:42:28;;;;;;;4.78;4.00;;;;;;;;;;10555560;28;20040;-78
2023/04/15 18:47:28;;;;;;;4.32;3.47;;;;;;;;;;10555119;28;20040;-79
2023/04/15 18:52:30;;;;;;;6.32;3.40;;;;;;;;;;10534764;28;20096;-78
2023/04/15 18:57:33;;;;;;;4.63;2.85;;;;;;;;;;10567586;28;20108;-80
2023/04/15 19:02:39;;;;;;;5.60;3.20;;;;;;;;;;10579669;28;20040;-79
2023/04/15 19:07:44;;;;;;;4.90;3.20;;;;;;;;;;10573714;28;20106;-80
2023/04/15 19:12:45;;;;;;;6.30;3.72;;;;;;;;;;10527984;28;20032;-81
2023/04/15 19:17:51;;;;;;;4.93;3.83;;;;;;;;;;10550949;28;20047;-85
2023/04/15 19:23:18;;;;;;;5.00;3.45;;;;;;;;;;10535147;28;20496;-84
2023/04/15 19:28:21;;;;;;;4.40;3.70;;;;;;;;;;10564703;28;20055;-82
2023/04/15 19:33:51;;;;;;;3.85;2.85;;;;;;;;;;10532925;28;20128;-84
2023/04/15 19:39:15;;;;;;;3.65;2.60;;;;;;;;;;10559470;28;20055;-83
2023/04/15 19:44:21;;;;;;;3.80;2.55;;;;;;;;;;10546640;28;20068;-85
2023/04/15 19:49:29;;;;;;;3.85;3.03;;;;;;;;;;10561285;28;20054;-84
2023/04/15 19:54:49;;;;;;;3.50;2.90;;;;;;;;;;10551251;28;20055;-82
2023/04/15 19:59:51;;;;;;;2.90;2.60;;;;;;;;;;10574505;28;20020;-83
2023/04/15 20:05:10;;;;;;;3.92;2.55;;;;;;;;;;10613024;27;20032;-86
2023/04/15 20:10:11;;;;;;;3.58;2.65;;;;;;;;;;10623231;28;20067;-82
2023/04/15 20:16:11;;;;;;;3.08;2.40;;;;;;;;;;10611255;28;20043;-82
2023/04/15 20:22:20;;;;;;;4.25;2.70;;;;;;;;;;10551138;28;20609;-83
2023/04/15 20:39:19;;;;;;;3.80;2.90;;;;;;;;;;10536685;28;20033;-85
2023/04/15 20:45:02;;;;;;;6.50;3.47;;;;;;;;;;10526470;28;20067;-82
2023/04/15 20:50:10;;;;;;;4.20;2.90;;;;;;;;;;10535981;28;20020;-82
2023/04/15 20:55:51;;;;;;;3.72;3.05;;;;;;;;;;10526632;28;20049;-81
2023/04/15 21:00:57;;;;;;;5.27;3.60;;;;;;;;;;10520576;28;20556;-82
2023/04/15 21:06:40;;;;;;;3.63;3.17;;;;;;;;;;10532017;28;20344;-85
2023/04/15 21:12:41;;;;;;;5.28;3.90;;;;;;;;;;10524190;28;20118;-85
2023/04/15 21:18:35;;;;;;;5.43;3.42;;;;;;;;;;10537467;28;20052;-82
2023/04/15 21:24:12;;;;;;;;;;;;;;;;;;;;;
2023/04/15 21:35:13;;;;;;;5.25;4.43;;;;;;;;;;10537560;28;20040;-88
2023/04/15 21:40:21;;;;;;;6.15;4.88;;;;;;;;;;10538030;28;20047;-88
2023/04/15 21:46:02;;;;;;;6.30;4.70;;;;;;;;;;10505188;28;20065;-86
2023/04/15 21:57:00;;;;;;;5.25;4.32;;;;;;;;;;10531994;28;20760;-84
2023/04/15 22:02:53;;;;;;;6.00;5.40;;;;;;;;;;10502081;28;20063;-82
2023/04/15 22:08:02;;;;;;;6.55;5.50;;;;;;;;;;10537001;22;20223;-80
2023/04/15 22:13:09;;;;;;;6.63;5.57;;;;;;;;;;10393860;28;20049;-85
2023/04/15 22:18:25;;;;;;;6.53;5.22;;;;;;;;;;10391363;28;20061;-84
2023/04/15 22:23:59;;;;;;;7.00;5.18;;;;;;;;;;10437829;28;20065;-87
2023/04/15 22:29:39;;;;;;;7.68;5.55;;;;;;;;;;10513079;28;20070;-86
2023/04/15 22:35:01;;;;;;;7.45;5.43;;;;;;;;;;10510331;28;20049;-82
2023/04/15 23:08:32;;;;;;;7.28;5.43;;;;;;;;;;10484596;28;20079;-84
2023/04/15 23:13:49;;;;;;;7.93;6.00;;;;;;;;;;10465180;28;20052;-83
2023/04/15 23:19:00;;;;;;;8.30;6.13;;;;;;;;;;10442334;28;20053;-85
2023/04/15 23:24:03;;;;;;;7.85;5.70;;;;;;;;;;10447131;28;20049;-83
2023/04/15 23:29:03;;;;;;;8.63;5.50;;;;;;;;;;10418308;28;20045;-82
2023/04/15 23:34:05;;;;;;;7.47;5.55;;;;;;;;;;10429408;28;20054;-81
2023/04/15 23:39:06;;;;;;;8.25;5.53;;;;;;;;;;10432054;28;20560;-82
2023/04/15 23:44:08;;;;;;;10.20;6.65;;;;;;;;;;10433863;28;20049;-81
2023/04/15 23:49:09;;;;;;;10.45;5.88;;;;;;;;;;10426420;28;20045;-79
2023/04/15 23:54:10;;;;;;;9.18;6.22;;;;;;;;;;10426826;28;20046;-81
2023/04/15 23:59:11;;;;;;;8.85;5.90;;;;;;;;;;10417447;28;20061;-81
